Time;durP1;ratioP1;P1;durP2;ratioP2;P2;SDS_P1;SDS_P2;PMS_P1;PMS_P2;Temp;Humidity;BMP_temperature;BMP_pressure;BME280_temperature;BME280_humidity;BME280_pressure;Samples;Min_cycle;Max_cycle;Signal;HPM_P1;HPM_P2
2023/03/12 00:01:38;;;;;;;4.70;3.40;;;5.10;78.60;;;;;;4917615;29;20036;-84
2023/03/12 00:04:04;;;;;;;4.72;3.13;;;5.10;78.60;;;;;;4886836;29;20030;-86
2023/03/12 00:06:31;;;;;;;4.20;2.90;;;5.10;78.60;;;;;;4902339;29;20040;-84
2023/03/12 00:08:57;;;;;;;4.30;3.30;;;5.10;78.60;;;;;;4917443;29;20116;-84
2023/03/12 00:11:23;;;;;;;5.10;2.83;;;5.10;78.60;;;;;;4902547;29;20044;-83
2023/03/12 00:13:54;;;;;;;4.55;3.47;;;5.00;78.60;;;;;;4918067;29;20369;-83
2023/03/12 00:16:21;;;;;;;4.88;3.35;;;5.10;78.70;;;;;;4902354;29;20067;-84
2023/03/12 00:18:48;;;;;;;4.57;3.10;;;5.00;79.20;;;;;;4902179;29;20099;-83
2023/03/12 00:21:15;;;;;;;4.75;3.58;;;5.00;78.60;;;;;;4902358;29;20043;-83
2023/03/12 00:23:40;;;;;;;4.95;3.30;;;5.00;78.60;;;;;;4901310;29;20137;-84
2023/03/12 00:26:10;;;;;;;4.13;3.30;;;5.00;78.60;;;;;;4917413;29;20041;-83
2023/03/12 00:28:36;;;;;;;4.90;3.40;;;5.00;78.60;;;;;;4901497;29;20028;-83
2023/03/12 00:31:12;;;;;;;4.60;3.28;;;5.00;78.60;;;;;;4901476;29;20028;-84
2023/03/12 00:33:38;;;;;;;4.38;3.40;;;5.00;78.60;;;;;;4900894;29;20040;-84
2023/03/12 00:36:04;;;;;;;4.55;3.45;;;5.00;78.60;;;;;;4901691;29;20039;-83
2023/03/12 00:38:30;;;;;;;4.63;3.08;;;5.00;78.60;;;;;;4917898;29;20032;-82
2023/03/12 00:40:55;;;;;;;4.95;3.67;;;5.00;78.60;;;;;;4916507;29;20039;-83
2023/03/12 00:43:21;;;;;;;4.78;3.55;;;5.00;78.60;;;;;;4917377;29;20423;-83
2023/03/12 00:45:47;;;;;;;5.70;3.95;;;4.90;78.60;;;;;;4916720;29;20056;-83
2023/03/12 00:48:13;;;;;;;5.30;3.60;;;5.00;78.60;;;;;;4901172;29;20040;-83
2023/03/12 00:50:39;;;;;;;4.90;3.58;;;5.00;78.70;;;;;;4900792;29;20032;-84
2023/03/12 00:53:05;;;;;;;4.63;3.30;;;4.90;78.60;;;;;;4900767;29;20020;-85
2023/03/12 00:55:30;;;;;;;4.53;3.58;;;4.90;78.50;;;;;;4916641;29;20063;-83
2023/03/12 00:57:56;;;;;;;4.30;3.42;;;4.90;78.60;;;;;;4917471;29;20487;-83
2023/03/12 01:00:22;;;;;;;4.97;3.78;;;4.90;78.60;;;;;;4900478;29;20405;-84
2023/03/12 01:02:48;;;;;;;4.38;3.33;;;4.90;78.60;;;;;;4932320;29;20039;-83
2023/03/12 01:05:14;;;;;;;5.18;3.35;;;4.90;78.60;;;;;;4900916;29;20478;-83
2023/03/12 01:07:40;;;;;;;5.68;3.88;;;4.90;78.60;;;;;;4917546;29;20512;-83
2023/03/12 01:10:07;;;;;;;4.43;3.50;;;4.90;78.60;;;;;;4901178;29;20466;-83
2023/03/12 01:12:33;;;;;;;4.20;3.38;;;4.90;78.60;;;;;;4917766;29;20076;-83
2023/03/12 01:15:00;;;;;;;4.32;3.33;;;4.90;78.60;;;;;;4900818;29;20039;-83
2023/03/12 01:17:25;;;;;;;3.97;3.33;;;4.90;78.60;;;;;;4916137;29;20028;-83
2023/03/12 01:19:51;;;;;;;3.83;3.13;;;4.90;78.60;;;;;;4916714;29;20038;-84
2023/03/12 01:22:17;;;;;;;4.28;3.42;;;4.90;78.60;;;;;;4885039;29;20028;-83
2023/03/12 01:24:43;;;;;;;4.57;3.15;;;4.90;78.70;;;;;;4916985;29;20475;-83
2023/03/12 01:27:09;;;;;;;5.35;3.63;;;4.90;78.60;;;;;;4900678;29;20448;-83
2023/03/12 01:29:35;;;;;;;4.35;3.25;;;4.90;78.60;;;;;;4916122;29;20107;-83
2023/03/12 01:32:01;;;;;;;4.30;3.30;;;4.90;78.60;;;;;;4916169;29;20034;-83
2023/03/12 01:34:27;;;;;;;4.65;3.47;;;4.90;78.60;;;;;;4901315;29;20032;-83
2023/03/12 01:36:53;;;;;;;4.68;3.38;;;4.90;78.70;;;;;;4915997;29;20490;-83
2023/03/12 01:39:19;;;;;;;4.40;3.22;;;4.90;78.60;;;;;;4916161;29;20040;-83
2023/03/12 01:41:45;;;;;;;4.43;3.30;;;4.90;78.60;;;;;;4916939;29;20032;-83
2023/03/12 01:44:13;;;;;;;4.22;3.20;;;4.90;78.70;;;;;;4917051;29;20588;-83
2023/03/12 01:46:42;;;;;;;4.28;3.05;;;4.90;78.70;;;;;;4932523;29;20106;-83
2023/03/12 01:49:33;;;;;;;3.25;2.92;;;4.90;78.70;;;;;;4915824;29;20028;-84
2023/03/12 01:52:11;;;;;;;4.03;3.10;;;4.80;78.70;;;;;;4900208;29;20500;-84
2023/03/12 01:55:02;;;;;;;3.38;2.90;;;4.90;78.70;;;;;;4886012;29;20063;-83
2023/03/12 01:57:49;;;;;;;3.72;3.05;;;4.90;78.70;;;;;;4903422;29;20038;-83
2023/03/12 02:00:19;;;;;;;4.43;3.33;;;4.90;78.70;;;;;;4887849;29;20075;-84
2023/03/12 02:02:46;;;;;;;4.10;3.22;;;4.90;78.70;;;;;;4888523;29;20123;-84
2023/03/12 02:05:25;;;;;;;3.28;2.90;;;4.90;78.70;;;;;;4904287;29;20039;-83
2023/03/12 02:07:52;;;;;;;3.80;3.10;;;4.80;78.60;;;;;;4904052;29;20384;-83
2023/03/12 02:10:18;;;;;;;4.15;3.00;;;4.90;78.70;;;;;;4888331;29;20024;-82
2023/03/12 02:12:44;;;;;;;3.72;2.85;;;4.90;78.70;;;;;;4921107;29;20028;-83
2023/03/12 02:15:11;;;;;;;3.88;3.15;;;4.90;78.70;;;;;;4919238;29;20028;-83
2023/03/12 02:17:39;;;;;;;4.10;2.90;;;4.90;78.70;;;;;;4919393;29;20032;-83
2023/03/12 02:20:33;;;;;;;4.15;3.03;;;4.80;78.70;;;;;;4904244;29;20083;-83
2023/03/12 02:23:12;;;;;;;4.13;2.97;;;4.80;78.70;;;;;;4919348;29;20024;-83
2023/03/12 02:25:48;;;;;;;3.72;2.72;;;4.90;78.70;;;;;;4904027;29;20496;-83
2023/03/12 02:28:17;;;;;;;3.20;2.90;;;4.80;78.70;;;;;;4919699;29;20558;-83
2023/03/12 02:30:50;;;;;;;4.85;3.38;;;4.80;78.70;;;;;;4888625;29;20032;-83
2023/03/12 02:33:16;;;;;;;3.53;2.75;;;4.80;78.70;;;;;;4904254;29;20028;-83
2023/03/12 02:35:45;;;;;;;4.20;3.03;;;4.80;78.70;;;;;;4889506;29;20024;-83
2023/03/12 02:38:34;;;;;;;3.67;2.55;;;4.80;78.70;;;;;;4904191;29;20047;-83
2023/03/12 02:41:14;;;;;;;3.20;2.55;;;4.80;78.70;;;;;;4897858;29;20127;-83
2023/03/12 02:43:44;;;;;;;3.75;2.83;;;4.80;78.70;;;;;;4918886;29;20028;-84
2023/03/12 02:46:13;;;;;;;3.95;2.83;;;4.80;78.70;;;;;;4918805;29;20055;-84
2023/03/12 02:48:39;;;;;;;3.67;2.58;;;4.80;78.70;;;;;;4902495;29;20042;-83
2023/03/12 02:51:05;;;;;;;3.83;2.85;;;4.80;78.70;;;;;;4935270;29;20034;-83
2023/03/12 02:53:31;;;;;;;3.22;2.63;;;4.80;78.70;;;;;;4904851;29;20035;-83
2023/03/12 02:55:57;;;;;;;3.28;2.80;;;4.80;78.70;;;;;;4893006;29;20039;-83
2023/03/12 02:58:23;;;;;;;3.60;2.58;;;4.80;78.70;;;;;;4905483;29;20029;-83
2023/03/12 03:00:49;;;;;;;3.70;2.60;;;4.80;78.70;;;;;;4918889;29;20068;-83
2023/03/12 03:03:15;;;;;;;3.67;2.40;;;4.80;78.70;;;;;;4903817;29;20107;-87
2023/03/12 03:05:41;;;;;;;3.65;2.67;;;4.80;78.70;;;;;;4904731;29;20098;-82
2023/03/12 03:08:08;;;;;;;3.35;2.50;;;4.80;78.70;;;;;;4903418;29;20039;-84
2023/03/12 03:10:34;;;;;;;2.97;2.60;;;4.80;78.70;;;;;;4919633;29;20036;-83
2023/03/12 03:13:03;;;;;;;3.83;2.58;;;4.80;78.60;;;;;;4902778;29;20039;-85
2023/03/12 03:15:29;;;;;;;2.97;2.40;;;4.90;78.70;;;;;;4902573;29;20035;-84
2023/03/12 03:17:55;;;;;;;3.00;2.40;;;4.80;78.70;;;;;;4918140;29;20040;-83
2023/03/12 03:20:23;;;;;;;2.67;2.33;;;4.80;78.70;;;;;;4933945;29;20421;-82
2023/03/12 03:22:49;;;;;;;2.60;2.40;;;4.80;79.00;;;;;;4902118;29;20028;-83
2023/03/12 03:25:16;;;;;;;4.13;2.80;;;4.80;78.70;;;;;;4902113;29;20135;-83
2023/03/12 03:27:42;;;;;;;3.03;2.40;;;4.80;78.70;;;;;;4917409;29;20032;-83
2023/03/12 03:30:10;;;;;;;3.35;2.65;;;4.80;78.70;;;;;;4918000;29;20123;-83
2023/03/12 03:32:40;;;;;;;3.38;2.53;;;4.80;78.70;;;;;;4887806;29;20032;-82
2023/03/12 03:35:08;;;;;;;3.00;2.50;;;4.80;78.70;;;;;;4917687;29;20046;-83
2023/03/12 03:37:34;;;;;;;3.40;2.50;;;4.80;78.70;;;;;;4917677;29;20127;-83
2023/03/12 03:40:00;;;;;;;2.78;2.47;;;4.90;78.70;;;;;;4901856;29;20036;-83
2023/03/12 03:42:26;;;;;;;3.42;2.80;;;4.80;78.70;;;;;;4902022;29;20470;-83
2023/03/12 03:44:52;;;;;;;2.80;2.53;;;4.80;78.70;;;;;;4917970;29;20032;-82
2023/03/12 03:47:18;;;;;;;2.83;2.47;;;4.90;78.70;;;;;;4901972;29;20405;-84
2023/03/12 03:49:44;;;;;;;3.50;2.60;;;4.80;78.70;;;;;;4901538;29;20470;-84
2023/03/12 03:52:11;;;;;;;4.07;2.70;;;4.90;78.70;;;;;;4901931;29;20125;-83
2023/03/12 03:54:38;;;;;;;3.17;2.55;;;4.80;79.30;;;;;;4917006;29;20123;-83
2023/03/12 03:57:06;;;;;;;2.60;2.40;;;4.90;78.70;;;;;;4902275;29;20029;-82
2023/03/12 03:59:31;;;;;;;3.80;2.53;;;4.90;78.70;;;;;;4917394;29;20152;-83
2023/03/12 04:01:57;;;;;;;4.38;2.50;;;4.90;78.70;;;;;;4902501;29;20435;-82
2023/03/12 04:04:24;;;;;;;3.20;2.35;;;4.90;78.70;;;;;;4917055;29;20043;-83
2023/03/12 04:06:50;;;;;;;3.20;2.67;;;4.80;78.70;;;;;;4917168;29;20468;-83
2023/03/12 04:09:16;;;;;;;2.78;2.38;;;4.80;78.70;;;;;;4901501;29;20072;-83
2023/03/12 04:11:42;;;;;;;3.53;2.60;;;4.90;78.80;;;;;;4901731;29;20032;-83
2023/03/12 04:14:11;;;;;;;3.20;2.40;;;4.80;78.70;;;;;;4918042;29;20425;-84
2023/03/12 04:16:39;;;;;;;3.10;2.50;;;4.90;78.80;;;;;;4916601;29;20048;-83
2023/03/12 04:19:05;;;;;;;3.30;2.42;;;4.80;78.70;;;;;;4901530;29;20091;-83
2023/03/12 04:21:31;;;;;;;2.72;2.22;;;4.90;78.70;;;;;;4901482;29;20038;-81
2023/03/12 04:23:57;;;;;;;3.28;2.45;;;4.90;78.70;;;;;;4901398;29;20426;-83
2023/03/12 04:26:27;;;;;;;3.17;2.63;;;4.90;78.70;;;;;;4901190;29;20134;-83
2023/03/12 04:28:54;;;;;;;3.22;2.30;;;4.80;78.70;;;;;;4900905;29;20032;-83
2023/03/12 04:31:20;;;;;;;3.08;2.40;;;4.80;78.70;;;;;;4901404;29;20068;-83
2023/03/12 04:33:50;;;;;;;2.60;2.35;;;4.90;78.80;;;;;;4901950;29;20067;-83
2023/03/12 04:36:21;;;;;;;2.67;2.20;;;4.90;78.70;;;;;;4917468;29;20039;-82
2023/03/12 04:38:49;;;;;;;3.70;2.50;;;4.90;78.70;;;;;;4885864;29;20397;-83
2023/03/12 04:41:17;;;;;;;2.38;2.10;;;4.90;78.80;;;;;;4902398;29;20083;-83
2023/03/12 04:43:58;;;;;;;2.72;2.28;;;4.90;78.70;;;;;;4917739;29;20032;-84
2023/03/12 04:46:24;;;;;;;2.60;2.10;;;4.90;78.70;;;;;;4899296;29;20112;-86
2023/03/12 04:48:50;;;;;;;2.85;2.33;;;4.90;78.70;;;;;;4944605;29;20024;-83
2023/03/12 04:51:17;;;;;;;3.08;2.55;;;4.90;78.70;;;;;;4904307;29;20031;-83
2023/03/12 04:53:43;;;;;;;2.63;2.22;;;4.90;78.70;;;;;;4903363;29;20458;-83
2023/03/12 04:56:11;;;;;;;2.58;2.30;;;4.90;78.70;;;;;;4902477;29;20477;-83
2023/03/12 04:58:37;;;;;;;3.25;2.72;;;4.90;78.70;;;;;;4901247;29;20040;-82
2023/03/12 05:01:04;;;;;;;2.67;2.40;;;4.90;78.70;;;;;;4903104;29;20032;-83
2023/03/12 05:03:30;;;;;;;2.78;2.33;;;4.90;78.70;;;;;;4921503;29;20020;-83
2023/03/12 05:05:57;;;;;;;2.97;2.45;;;4.90;78.70;;;;;;4917817;29;20036;-84
2023/03/12 05:08:23;;;;;;;2.85;2.22;;;4.90;78.70;;;;;;4901473;29;20171;-83
2023/03/12 05:10:49;;;;;;;2.30;2.08;;;4.90;78.80;;;;;;4917507;29;20130;-85
2023/03/12 05:13:19;;;;;;;2.80;2.38;;;4.90;79.30;;;;;;4932471;29;20029;-82
2023/03/12 05:15:47;;;;;;;2.65;2.20;;;5.00;78.80;;;;;;4916758;29;20024;-82
2023/03/12 05:18:14;;;;;;;2.25;2.05;;;5.00;78.80;;;;;;4885623;29;20043;-83
2023/03/12 05:20:40;;;;;;;3.08;2.28;;;4.90;78.70;;;;;;4933288;29;20454;-82
2023/03/12 05:23:06;;;;;;;2.47;2.28;;;5.00;78.80;;;;;;4900470;29;20032;-82
2023/03/12 05:25:32;;;;;;;2.53;2.15;;;4.90;78.70;;;;;;4900674;29;20045;-83
2023/03/12 05:27:58;;;;;;;2.50;2.17;;;5.00;78.80;;;;;;4900364;29;20540;-83
2023/03/12 05:30:24;;;;;;;2.40;2.20;;;5.00;78.70;;;;;;4900763;29;20469;-83
2023/03/12 05:32:50;;;;;;;3.25;2.10;;;5.00;78.70;;;;;;4935616;29;20027;-84
2023/03/12 05:35:16;;;;;;;2.92;2.33;;;5.00;78.70;;;;;;4904148;29;20036;-83
2023/03/12 05:37:44;;;;;;;2.83;2.30;;;5.00;78.70;;;;;;4936000;29;20024;-83
2023/03/12 05:40:12;;;;;;;2.65;2.20;;;5.00;78.70;;;;;;4920673;29;20107;-83
2023/03/12 05:42:38;;;;;;;3.22;2.25;;;5.00;78.70;;;;;;4904815;29;20458;-84
2023/03/12 05:45:08;;;;;;;2.90;2.42;;;5.00;78.70;;;;;;4920429;29;20028;-84
2023/03/12 05:47:36;;;;;;;2.63;2.38;;;5.00;78.80;;;;;;4919273;29;20561;-84
2023/03/12 05:50:02;;;;;;;2.53;2.20;;;5.00;78.80;;;;;;4920563;29;20188;-84
2023/03/12 05:52:29;;;;;;;2.83;2.42;;;5.00;78.80;;;;;;4890877;29;20522;-83
2023/03/12 05:54:55;;;;;;;3.75;2.35;;;5.00;78.70;;;;;;4905804;29;20068;-83
2023/03/12 05:57:20;;;;;;;3.00;2.42;;;5.00;78.70;;;;;;4919883;29;20032;-83
2023/03/12 05:59:46;;;;;;;3.33;2.63;;;5.00;78.70;;;;;;4904000;29;20044;-83
2023/03/12 06:02:13;;;;;;;2.88;2.50;;;5.10;78.80;;;;;;4888481;29;20377;-83
2023/03/12 06:04:39;;;;;;;3.38;2.55;;;5.10;78.80;;;;;;4888803;29;20028;-83
2023/03/12 06:07:05;;;;;;;3.15;2.30;;;5.00;78.70;;;;;;4920450;29;20032;-83
2023/03/12 06:09:34;;;;;;;3.85;2.80;;;5.10;78.70;;;;;;4903756;29;20119;-83
2023/03/12 06:12:00;;;;;;;4.20;2.50;;;5.00;78.70;;;;;;4919049;29;20499;-83
2023/03/12 06:14:25;;;;;;;3.08;2.58;;;5.10;78.70;;;;;;4935296;29;20103;-82
2023/03/12 06:16:53;;;;;;;3.97;2.95;;;5.10;78.90;;;;;;4903353;29;20040;-83
2023/03/12 06:19:19;;;;;;;3.90;2.40;;;5.10;78.70;;;;;;4888062;29;20025;-87
2023/03/12 06:21:47;;;;;;;2.20;2.03;;;5.10;78.70;;;;;;4903437;29;20032;-82
2023/03/12 06:24:13;;;;;;;3.40;2.45;;;5.10;78.70;;;;;;4918918;29;20035;-83
2023/03/12 06:26:45;;;;;;;2.78;2.15;;;5.10;78.70;;;;;;4903484;29;20040;-84
2023/03/12 06:29:11;;;;;;;4.25;2.70;;;5.10;78.70;;;;;;4903051;29;20095;-84
2023/03/12 06:31:38;;;;;;;2.65;2.40;;;5.10;78.70;;;;;;4902456;29;20044;-84
2023/03/12 06:34:04;;;;;;;2.92;2.40;;;5.10;78.70;;;;;;4934827;29;20031;-85
2023/03/12 06:36:30;;;;;;;3.35;2.58;;;5.10;78.70;;;;;;4919951;29;20095;-83
2023/03/12 06:38:56;;;;;;;3.78;2.55;;;5.10;78.70;;;;;;4934555;29;20466;-84
2023/03/12 06:41:22;;;;;;;2.63;2.38;;;5.10;78.70;;;;;;4918126;29;20032;-85
2023/03/12 06:43:48;;;;;;;5.20;3.05;;;5.20;78.70;;;;;;4903415;29;20485;-84
2023/03/12 06:46:17;;;;;;;2.72;2.20;;;5.10;78.70;;;;;;4934078;29;20405;-86
2023/03/12 06:48:45;;;;;;;2.83;2.30;;;5.20;78.70;;;;;;4918924;29;20028;-82
2023/03/12 06:51:12;;;;;;;2.97;2.45;;;5.10;78.60;;;;;;4934290;29;20024;-86
2023/03/12 06:53:38;;;;;;;2.60;2.22;;;5.10;78.60;;;;;;4934754;29;20500;-83
2023/03/12 06:56:05;;;;;;;3.38;2.50;;;5.20;78.70;;;;;;4903506;29;20084;-83
2023/03/12 06:58:31;;;;;;;2.92;2.40;;;5.20;78.70;;;;;;4886709;29;20036;-82
2023/03/12 07:00:57;;;;;;;2.75;2.28;;;5.20;78.70;;;;;;4887161;29;20496;-81
2023/03/12 07:03:23;;;;;;;2.80;2.58;;;5.20;78.70;;;;;;4903486;29;20577;-83
2023/03/12 07:05:50;;;;;;;2.58;2.20;;;5.20;78.60;;;;;;4933901;29;20103;-82
2023/03/12 07:08:17;;;;;;;2.72;2.25;;;5.20;78.70;;;;;;4918417;29;20044;-84
2023/03/12 07:10:44;;;;;;;4.10;2.83;;;5.20;78.70;;;;;;4919294;29;20022;-86
2023/03/12 07:13:10;;;;;;;2.50;2.30;;;5.20;78.70;;;;;;4902291;29;20031;-83
2023/03/12 07:15:36;;;;;;;2.47;2.28;;;5.20;78.70;;;;;;4902504;29;20051;-82
2023/03/12 07:18:10;;;;;;;2.90;2.45;;;5.20;78.70;;;;;;4902160;29;20446;-83
2023/03/12 07:20:38;;;;;;;3.10;2.65;;;5.20;78.70;;;;;;4934485;29;20042;-83
2023/03/12 07:23:04;;;;;;;3.45;2.67;;;5.20;78.70;;;;;;4934129;29;20062;-85
2023/03/12 07:25:30;;;;;;;2.90;2.42;;;5.20;78.70;;;;;;4934829;29;20032;-84
2023/03/12 07:27:56;;;;;;;2.88;2.25;;;5.20;78.60;;;;;;4902992;29;20131;-85
2023/03/12 07:30:22;;;;;;;2.38;2.17;;;5.30;78.70;;;;;;4918534;29;20457;-83
2023/03/12 07:32:47;;;;;;;3.55;2.40;;;5.30;78.70;;;;;;4919391;29;20032;-83
2023/03/12 07:35:13;;;;;;;2.88;2.17;;;5.20;78.70;;;;;;4922132;29;20509;-83
2023/03/12 07:37:39;;;;;;;2.45;2.20;;;5.30;78.70;;;;;;4907579;29;20048;-83
2023/03/12 07:40:09;;;;;;;3.05;2.75;;;5.30;78.70;;;;;;4923897;29;20116;-82
2023/03/12 07:42:35;;;;;;;2.75;2.38;;;5.30;78.80;;;;;;4906281;29;20032;-83
2023/03/12 07:45:01;;;;;;;2.97;2.25;;;5.30;78.70;;;;;;4918648;29;20460;-82
2023/03/12 07:47:27;;;;;;;2.97;2.55;;;5.30;78.70;;;;;;4902218;29;20060;-83
2023/03/12 07:49:53;;;;;;;3.33;2.58;;;5.30;78.70;;;;;;4902426;29;20042;-83
2023/03/12 07:52:19;;;;;;;2.88;2.58;;;5.30;78.70;;;;;;4902038;29;20038;-85
2023/03/12 07:54:45;;;;;;;2.72;2.33;;;5.30;78.70;;;;;;4902005;29;20496;-84
2023/03/12 07:57:11;;;;;;;3.63;2.65;;;5.40;78.70;;;;;;4933865;29;20374;-85
2023/03/12 07:59:37;;;;;;;2.90;2.60;;;5.40;78.70;;;;;;4902069;29;20048;-84
2023/03/12 08:02:05;;;;;;;2.75;2.30;;;5.40;78.70;;;;;;4902537;29;20044;-84
2023/03/12 08:04:31;;;;;;;2.50;2.05;;;5.40;78.70;;;;;;4902552;29;20056;-84
2023/03/12 08:06:57;;;;;;;2.30;2.00;;;5.40;78.70;;;;;;4919434;29;20028;-85
2023/03/12 08:09:23;;;;;;;3.25;2.28;;;5.40;78.70;;;;;;4902952;29;20028;-85
2023/03/12 08:11:48;;;;;;;3.13;2.33;;;5.40;79.30;;;;;;4902368;29;20540;-87
2023/03/12 08:14:14;;;;;;;3.00;2.40;;;5.50;78.70;;;;;;4901332;29;20056;-84
2023/03/12 08:16:43;;;;;;;3.35;2.63;;;5.50;78.70;;;;;;4902302;29;20064;-84
2023/03/12 08:19:08;;;;;;;4.45;2.60;;;5.50;78.70;;;;;;4901324;29;20043;-84
2023/03/12 08:21:34;;;;;;;3.65;2.40;;;5.50;78.70;;;;;;4901500;29;20028;-84
2023/03/12 08:24:00;;;;;;;2.72;2.25;;;5.50;78.70;;;;;;4902080;29;20453;-83
2023/03/12 08:26:26;;;;;;;4.35;2.50;;;5.50;78.60;;;;;;4902107;29;20024;-88
2023/03/12 08:28:52;;;;;;;3.53;2.20;;;5.50;78.60;;;;;;4901261;29;20123;-84
2023/03/12 08:31:17;;;;;;;2.78;2.30;;;5.60;78.70;;;;;;4885940;29;20040;-84
2023/03/12 08:33:45;;;;;;;2.85;2.50;;;5.50;78.70;;;;;;4916945;29;20028;-85
2023/03/12 08:36:12;;;;;;;2.90;2.35;;;5.60;78.70;;;;;;4885560;29;20168;-84
2023/03/12 08:38:37;;;;;;;2.30;2.10;;;5.60;78.70;;;;;;4901922;29;20036;-86
2023/03/12 08:41:04;;;;;;;2.22;2.00;;;5.60;78.70;;;;;;4933470;29;20038;-85
2023/03/12 08:43:30;;;;;;;2.65;2.25;;;5.60;78.70;;;;;;4901956;29;20051;-86
2023/03/12 08:45:57;;;;;;;2.88;2.17;;;5.60;78.70;;;;;;4916468;29;20036;-86
2023/03/12 08:48:24;;;;;;;3.45;2.53;;;5.60;78.70;;;;;;4901484;29;20063;-87
2023/03/12 08:50:50;;;;;;;2.85;2.20;;;5.60;78.60;;;;;;4885941;29;20035;-87
2023/03/12 08:53:17;;;;;;;3.33;2.50;;;5.70;78.70;;;;;;4917508;29;20032;-83
2023/03/12 08:55:44;;;;;;;2.83;2.50;;;5.70;78.70;;;;;;4899902;29;20089;-86
2023/03/12 08:58:10;;;;;;;2.50;2.10;;;5.70;78.70;;;;;;4900210;29;20111;-86
2023/03/12 09:00:36;;;;;;;3.20;2.70;;;5.70;78.70;;;;;;4915915;29;20040;-84
2023/03/12 09:03:02;;;;;;;3.67;2.92;;;5.70;78.60;;;;;;4916510;29;20035;-84
2023/03/12 09:05:30;;;;;;;3.08;2.33;;;5.70;78.70;;;;;;4884917;29;20131;-81
2023/03/12 09:07:56;;;;;;;3.00;2.30;;;5.70;78.70;;;;;;4915925;29;20028;-85
2023/03/12 09:10:26;;;;;;;2.72;2.25;;;5.70;78.70;;;;;;4900646;29;20115;-84
2023/03/12 09:12:54;;;;;;;3.42;2.45;;;5.80;78.80;;;;;;4885164;29;20041;-85
2023/03/12 09:15:20;;;;;;;2.75;2.20;;;5.80;78.80;;;;;;4900336;29;20130;-83
2023/03/12 09:17:49;;;;;;;2.92;2.55;;;5.80;78.70;;;;;;4901205;29;20032;-84
2023/03/12 09:20:16;;;;;;;2.45;2.25;;;5.80;78.80;;;;;;4885047;29;20091;-83
2023/03/12 09:22:42;;;;;;;3.45;2.40;;;5.80;78.80;;;;;;4900378;29;20020;-83
2023/03/12 09:25:10;;;;;;;2.50;2.30;;;5.80;78.70;;;;;;4916110;29;20346;-83
2023/03/12 09:27:37;;;;;;;3.97;2.47;;;5.80;78.80;;;;;;4931864;29;20028;-90
2023/03/12 09:30:05;;;;;;;2.95;2.60;;;5.80;78.80;;;;;;4917022;29;20037;-83
2023/03/12 09:32:31;;;;;;;2.58;2.10;;;5.90;78.80;;;;;;4915838;29;20079;-84
2023/03/12 09:34:57;;;;;;;3.55;2.45;;;5.80;78.70;;;;;;4885147;29;20028;-86
2023/03/12 09:37:25;;;;;;;3.40;2.50;;;5.90;78.70;;;;;;4916294;29;20024;-92
2023/03/12 09:39:52;;;;;;;3.25;2.50;;;5.90;78.70;;;;;;4917550;29;20036;-85
2023/03/12 09:42:44;;;;;;;3.15;2.45;;;5.90;78.70;;;;;;4900603;29;20040;-87
2023/03/12 09:45:20;;;;;;;3.30;2.40;;;5.90;78.70;;;;;;4900330;29;20123;-83
2023/03/12 09:47:50;;;;;;;2.50;2.10;;;6.00;78.70;;;;;;4917997;29;20126;-83
2023/03/12 09:50:18;;;;;;;3.72;2.83;;;6.00;78.70;;;;;;4916805;29;20040;-88
2023/03/12 09:52:50;;;;;;;3.45;2.63;;;6.00;78.60;;;;;;4901332;29;20033;-84
2023/03/12 09:55:21;;;;;;;4.43;2.80;;;6.00;78.60;;;;;;4918845;29;20048;-84
2023/03/12 09:57:50;;;;;;;2.60;2.33;;;6.10;78.60;;;;;;4913709;29;20052;-85
2023/03/12 10:00:22;;;;;;;3.28;2.53;;;6.10;78.60;;;;;;4897431;29;20028;-84
2023/03/12 10:02:58;;;;;;;2.83;2.38;;;6.10;78.60;;;;;;4927825;29;20028;-86
2023/03/12 10:05:39;;;;;;;3.65;3.10;;;6.10;78.50;;;;;;4906194;29;20489;-85
2023/03/12 10:08:04;;;;;;;4.30;3.00;;;6.10;78.50;;;;;;4921389;29;20044;-84
2023/03/12 10:10:54;;;;;;;3.92;2.70;;;6.20;78.50;;;;;;4921962;29;20028;-85
2023/03/12 10:14:00;;;;;;;3.45;2.75;;;6.20;78.60;;;;;;4907197;29;20068;-80
2023/03/12 10:16:40;;;;;;;3.45;2.60;;;6.20;78.60;;;;;;4890374;29;20025;-89
2023/03/12 10:19:24;;;;;;;4.15;2.58;;;6.20;78.50;;;;;;4905151;29;20043;-85
2023/03/12 10:22:21;;;;;;;3.20;2.50;;;6.20;78.50;;;;;;4904733;29;20056;-87
2023/03/12 10:24:59;;;;;;;3.95;2.70;;;6.30;78.50;;;;;;4902480;29;20048;-87
2023/03/12 10:27:28;;;;;;;3.00;2.45;;;6.30;78.40;;;;;;4903730;29;20040;-86
2023/03/12 10:29:55;;;;;;;3.33;2.72;;;6.30;78.40;;;;;;4934842;29;20028;-86
2023/03/12 10:32:29;;;;;;;3.28;2.65;;;6.40;78.50;;;;;;4903939;29;20071;-84
2023/03/12 10:35:02;;;;;;;3.47;2.90;;;6.40;78.40;;;;;;4919877;29;20066;-84
2023/03/12 10:37:41;;;;;;;3.80;2.70;;;6.50;78.40;;;;;;4887391;29;20055;-86
2023/03/12 10:40:16;;;;;;;4.05;3.03;;;6.50;78.40;;;;;;4902841;29;20079;-83
2023/03/12 10:42:42;;;;;;;4.05;3.10;;;6.50;78.40;;;;;;4920048;29;20032;-84
2023/03/12 10:45:09;;;;;;;5.10;3.63;;;6.50;78.30;;;;;;4888420;29;20450;-89
2023/03/12 10:47:43;;;;;;;4.68;3.55;;;6.60;78.30;;;;;;4919011;29;20060;-84
2023/03/12 10:50:25;;;;;;;5.47;3.97;;;6.60;79.00;;;;;;4920231;29;20150;-85
2023/03/12 10:53:11;;;;;;;5.75;3.63;;;6.60;78.30;;;;;;4903809;29;20051;-85
2023/03/12 10:55:37;;;;;;;5.40;3.35;;;6.70;78.30;;;;;;4887513;29;20413;-84
2023/03/12 10:58:03;;;;;;;5.38;3.65;;;6.70;78.20;;;;;;4919104;29;20028;-86
2023/03/12 11:00:31;;;;;;;4.47;3.70;;;6.70;78.20;;;;;;4903475;29;20043;-89
2023/03/12 11:03:02;;;;;;;4.55;3.53;;;6.80;78.30;;;;;;4903870;29;20028;-87
2023/03/12 11:05:59;;;;;;;5.60;3.60;;;6.80;78.30;;;;;;4920398;29;20040;-90
2023/03/12 11:08:31;;;;;;;4.93;3.85;;;6.80;78.30;;;;;;4895324;29;20050;-87
2023/03/12 11:10:59;;;;;;;5.65;3.90;;;6.90;78.20;;;;;;4903244;29;20481;-86
2023/03/12 11:13:36;;;;;;;5.60;4.07;;;6.90;78.20;;;;;;4935383;29;20119;-88
2023/03/12 11:16:27;;;;;;;5.32;4.10;;;7.00;78.30;;;;;;4903080;29;20100;-89
2023/03/12 11:19:04;;;;;;;5.50;3.95;;;7.00;78.30;;;;;;4904768;29;20084;-86
2023/03/12 11:21:35;;;;;;;5.30;3.75;;;7.00;78.20;;;;;;4903149;29;20029;-84
2023/03/12 11:24:08;;;;;;;5.15;3.75;;;7.10;78.30;;;;;;4902529;29;20036;-85
2023/03/12 11:26:42;;;;;;;5.75;4.57;;;7.10;78.30;;;;;;4903124;29;20043;-86
2023/03/12 11:29:26;;;;;;;5.85;4.10;;;7.10;78.20;;;;;;4918879;29;20075;-89
2023/03/12 11:32:17;;;;;;;5.53;4.20;;;7.20;78.20;;;;;;4919868;29;20036;-92
2023/03/12 11:34:48;;;;;;;5.90;4.40;;;7.30;78.30;;;;;;4902949;29;20488;-91
2023/03/12 11:37:36;;;;;;;6.10;4.60;;;7.30;78.20;;;;;;4903145;29;20473;-93
2023/03/12 11:40:16;;;;;;;6.40;4.50;;;7.30;78.30;;;;;;4903316;29;20091;-94
2023/03/12 11:42:57;;;;;;;6.22;4.25;;;7.40;78.30;;;;;;4918693;29;20032;-91
2023/03/12 11:46:01;;;;;;;5.90;4.38;;;7.40;78.30;;;;;;4902899;29;20039;-91
2023/03/12 11:48:39;;;;;;;5.45;3.72;;;7.40;78.30;;;;;;4918177;29;20056;-91
2023/03/12 11:51:32;;;;;;;5.50;4.10;;;7.50;78.20;;;;;;4918407;29;20044;-89
2023/03/12 11:54:40;;;;;;;5.80;4.28;;;7.50;78.30;;;;;;4919273;29;20123;-89
2023/03/12 11:57:24;;;;;;;5.75;4.28;;;7.60;78.40;;;;;;4902866;29;20060;-88
2023/03/12 12:00:11;;;;;;;5.30;3.90;;;7.60;78.20;;;;;;4934410;29;20421;-85
2023/03/12 12:03:08;;;;;;;5.60;4.20;;;7.70;78.30;;;;;;4902320;29;20111;-85
2023/03/12 12:05:37;;;;;;;5.07;3.58;;;7.70;78.30;;;;;;4918048;29;20123;-86
2023/03/12 12:08:03;;;;;;;5.90;3.95;;;7.80;78.30;;;;;;4917812;29;20032;-86
2023/03/12 12:10:50;;;;;;;7.43;4.30;;;7.80;78.30;;;;;;4917496;29;20034;-86
2023/03/12 12:13:58;;;;;;;5.43;4.20;;;7.90;78.40;;;;;;4934235;29;20525;-86
2023/03/12 12:16:42;;;;;;;6.40;4.10;;;7.90;78.40;;;;;;4918595;29;20107;-86
2023/03/12 12:20:00;;;;;;;6.50;3.80;;;7.90;78.30;;;;;;4917149;29;20044;-86
2023/03/12 12:26:36;;;;;;;5.35;3.53;;;8.10;78.40;;;;;;4860371;29;20044;-87
2023/03/12 12:29:48;;;;;;;6.15;3.38;;;8.10;78.30;;;;;;4846722;29;20044;-87
2023/03/12 12:36:44;;;;;;;5.45;3.03;;;8.20;78.40;;;;;;4919080;29;20079;-88
2023/03/12 12:39:33;;;;;;;5.63;2.92;;;8.30;78.30;;;;;;4898916;29;20052;-90
2023/03/12 12:42:07;;;;;;;4.50;2.90;;;8.30;78.30;;;;;;4890306;29;20048;-86
2023/03/12 12:44:57;;;;;;;5.63;3.15;;;8.40;78.40;;;;;;4909239;29;20035;-91
2023/03/12 12:47:46;;;;;;;3.97;2.90;;;8.40;78.40;;;;;;4903287;29;20058;-87
2023/03/12 12:50:25;;;;;;;7.00;2.88;;;8.50;78.50;;;;;;4920397;29;20048;-86
2023/03/12 12:53:20;;;;;;;4.00;2.92;;;8.50;78.40;;;;;;4902614;29;20104;-86
2023/03/12 12:56:05;;;;;;;5.40;3.10;;;8.60;78.50;;;;;;4932470;29;20028;-87
2023/03/12 12:58:43;;;;;;;6.30;3.20;;;8.70;78.50;;;;;;4915900;29;20040;-85
2023/03/12 13:01:09;;;;;;;6.60;3.00;;;8.70;78.40;;;;;;4916064;29;20649;-89
2023/03/12 13:03:37;;;;;;;5.45;2.92;;;8.80;78.50;;;;;;4900186;29;20027;-85
2023/03/12 13:06:05;;;;;;;4.18;2.80;;;8.80;78.60;;;;;;4884741;29;20369;-85
2023/03/12 13:08:43;;;;;;;4.85;2.97;;;8.80;78.60;;;;;;4916192;29;20058;-85
2023/03/12 13:11:12;;;;;;;5.63;2.90;;;8.90;78.70;;;;;;4932081;29;20064;-84
2023/03/12 13:13:37;;;;;;;3.65;2.58;;;8.90;78.60;;;;;;4931333;29;20028;-86
2023/03/12 13:16:41;;;;;;;4.75;2.88;;;9.00;78.60;;;;;;4915453;29;20028;-86
2023/03/12 13:19:43;;;;;;;4.43;2.30;;;9.00;78.70;;;;;;4931759;29;20040;-84
2023/03/12 13:22:28;;;;;;;5.05;2.53;;;9.10;78.70;;;;;;4879614;29;20074;-89
2023/03/12 13:25:18;;;;;;;4.22;2.65;;;9.10;78.70;;;;;;4915454;29;20032;-85